Time;durP1;ratioP1;P1;durP2;ratioP2;P2;SDS_P1;SDS_P2;PMS_P1;PMS_P2;Temp;Humidity;BMP_temperature;BMP_pressure;BME280_temperature;BME280_humidity;BME280_pressure;Samples;Min_cycle;Max_cycle;Signal;HPM_P1;HPM_P2
2024/01/24 00:01:47;;;;;;;3.37;2.03;;;13.20;99.90;;;;;;5047307;28;20193;-62
2024/01/24 00:04:15;;;;;;;2.77;1.83;;;13.20;99.90;;;;;;5049026;28;20217;-62
2024/01/24 00:06:44;;;;;;;2.73;1.90;;;13.30;99.90;;;;;;5051027;28;20232;-62
2024/01/24 00:09:14;;;;;;;2.10;1.87;;;13.30;99.90;;;;;;5051465;28;20223;-62
2024/01/24 00:11:42;;;;;;;2.20;1.90;;;13.20;99.90;;;;;;5050888;28;20224;-62
2024/01/24 00:14:11;;;;;;;2.70;2.30;;;13.20;99.90;;;;;;5045342;28;20197;-62
2024/01/24 00:16:40;;;;;;;2.57;1.90;;;13.10;99.90;;;;;;5050375;28;20197;-62
2024/01/24 00:19:09;;;;;;;2.27;2.17;;;13.00;99.90;;;;;;5052440;28;20766;-62
2024/01/24 00:21:38;;;;;;;2.30;2.20;;;13.00;99.90;;;;;;5048659;28;20221;-62
2024/01/24 00:24:06;;;;;;;2.40;2.30;;;12.90;99.90;;;;;;5052637;28;20269;-62
2024/01/24 00:26:37;;;;;;;2.37;2.27;;;12.90;99.90;;;;;;5045706;28;20226;-62
2024/01/24 00:29:06;;;;;;;4.10;2.23;;;12.90;99.90;;;;;;5052931;28;20195;-62
2024/01/24 00:31:34;;;;;;;2.20;2.10;;;12.80;99.90;;;;;;5051447;28;21706;-62
2024/01/24 00:34:02;;;;;;;2.20;2.10;;;12.80;99.90;;;;;;5047575;28;20731;-62
2024/01/24 00:36:30;;;;;;;2.50;2.40;;;12.70;99.90;;;;;;5047781;28;20754;-62
2024/01/24 00:38:59;;;;;;;2.60;2.40;;;12.60;99.90;;;;;;5045956;28;20274;-63
2024/01/24 00:41:27;;;;;;;2.70;2.43;;;12.60;99.90;;;;;;5043273;28;20240;-62
2024/01/24 00:43:57;;;;;;;2.70;2.50;;;12.60;99.90;;;;;;5051229;28;20196;-63
2024/01/24 00:46:25;;;;;;;2.37;2.17;;;12.50;99.90;;;;;;5047715;28;20222;-63
2024/01/24 00:48:53;;;;;;;2.37;2.27;;;12.50;99.90;;;;;;5044378;28;20229;-62
2024/01/24 00:51:22;;;;;;;2.70;2.50;;;12.50;99.90;;;;;;5049227;28;20225;-62
2024/01/24 00:53:52;;;;;;;3.93;2.50;;;12.50;99.90;;;;;;5044129;28;20271;-62
2024/01/24 00:56:20;;;;;;;2.67;2.47;;;12.40;99.90;;;;;;5052719;28;20185;-62
2024/01/24 00:58:48;;;;;;;3.03;2.80;;;12.40;99.90;;;;;;5049288;28;20191;-61
2024/01/24 01:01:18;;;;;;;2.60;2.50;;;12.40;99.90;;;;;;5050330;28;20650;-62
2024/01/24 01:03:46;;;;;;;3.07;2.87;;;12.40;99.90;;;;;;5051375;28;20303;-62
2024/01/24 01:06:18;;;;;;;3.03;2.77;;;12.30;99.90;;;;;;5048202;28;20225;-62
2024/01/24 01:08:46;;;;;;;3.23;2.50;;;12.30;99.90;;;;;;5044385;28;20306;-61
2024/01/24 01:11:14;;;;;;;2.70;2.60;;;12.30;99.90;;;;;;5046372;28;20220;-62
2024/01/24 01:13:45;;;;;;;3.07;2.70;;;12.30;99.90;;;;;;5042114;28;20198;-62
2024/01/24 01:16:13;;;;;;;2.40;2.40;;;12.30;99.90;;;;;;5042255;28;20232;-62
2024/01/24 01:18:42;;;;;;;3.53;2.80;;;12.30;99.90;;;;;;5044611;28;20234;-62
2024/01/24 01:21:11;;;;;;;3.13;2.90;;;12.30;99.90;;;;;;5052556;28;20238;-61
2024/01/24 01:23:39;;;;;;;3.73;2.80;;;12.30;99.90;;;;;;5050771;28;20225;-61
2024/01/24 01:26:08;;;;;;;2.63;2.50;;;12.20;99.90;;;;;;5039012;28;20651;-62
2024/01/24 01:28:36;;;;;;;2.53;2.43;;;12.20;99.90;;;;;;5047101;28;20220;-61
2024/01/24 01:31:23;;;;;;;2.50;2.40;;;12.30;99.90;;;;;;5043615;28;20222;-61
2024/01/24 01:33:53;;;;;;;2.50;2.40;;;12.20;99.90;;;;;;5041400;28;20228;-61
2024/01/24 01:36:21;;;;;;;2.30;2.20;;;12.20;99.90;;;;;;5033614;28;20729;-61
2024/01/24 01:38:51;;;;;;;2.33;2.30;;;12.20;99.90;;;;;;5047307;28;20224;-61
2024/01/24 01:41:19;;;;;;;2.13;2.03;;;12.20;99.90;;;;;;5051741;28;20236;-61
2024/01/24 01:43:47;;;;;;;2.13;2.10;;;12.20;99.90;;;;;;5047250;28;20197;-61
2024/01/24 01:46:18;;;;;;;2.37;2.27;;;12.20;99.90;;;;;;5049017;28;20212;-61
2024/01/24 01:48:49;;;;;;;1.97;1.87;;;12.20;99.90;;;;;;5044057;28;20244;-62
2024/01/24 01:51:20;;;;;;;1.97;1.97;;;12.20;99.90;;;;;;5043289;28;20216;-61
2024/01/24 01:53:50;;;;;;;1.90;1.90;;;12.20;99.90;;;;;;5049520;28;20216;-60
2024/01/24 01:56:20;;;;;;;2.00;1.80;;;12.20;99.90;;;;;;5042510;28;20203;-61
2024/01/24 01:58:50;;;;;;;1.90;1.90;;;12.20;99.90;;;;;;5047556;28;20196;-61
2024/01/24 02:01:20;;;;;;;1.63;1.63;;;12.20;99.90;;;;;;5050247;28;20307;-61
2024/01/24 02:03:48;;;;;;;1.93;1.70;;;12.20;99.90;;;;;;5050198;28;20216;-61
2024/01/24 02:06:17;;;;;;;1.80;1.80;;;12.20;99.90;;;;;;5036114;28;20224;-61
2024/01/24 02:08:47;;;;;;;1.70;1.70;;;12.20;99.90;;;;;;5044659;28;20767;-61
2024/01/24 02:11:16;;;;;;;1.73;1.60;;;12.20;99.90;;;;;;5038460;28;20555;-61
2024/01/24 02:13:44;;;;;;;1.73;1.73;;;12.20;99.90;;;;;;5035730;28;20540;-61
2024/01/24 02:16:13;;;;;;;5.20;1.70;;;12.20;99.90;;;;;;5048007;28;20217;-60
2024/01/24 02:18:47;;;;;;;1.70;1.70;;;12.20;99.90;;;;;;5052642;28;20231;-61
2024/01/24 02:21:15;;;;;;;1.60;1.60;;;12.20;99.90;;;;;;5038778;28;20220;-61
2024/01/24 02:23:44;;;;;;;1.53;1.50;;;12.20;99.90;;;;;;5055215;28;20239;-61
2024/01/24 02:26:15;;;;;;;1.70;1.70;;;12.10;99.90;;;;;;5049327;28;20197;-61
2024/01/24 02:28:43;;;;;;;1.60;1.60;;;12.10;99.90;;;;;;5050079;28;20229;-60
2024/01/24 02:31:11;;;;;;;1.60;1.50;;;12.20;99.90;;;;;;5054660;28;20224;-61
2024/01/24 02:33:40;;;;;;;1.60;1.50;;;12.20;99.90;;;;;;5055530;28;20251;-61
2024/01/24 02:36:09;;;;;;;1.57;1.47;;;12.20;99.90;;;;;;5053437;28;20224;-62
2024/01/24 02:38:37;;;;;;;1.60;1.60;;;12.20;99.90;;;;;;5050113;28;20278;-61
2024/01/24 02:41:07;;;;;;;1.50;1.50;;;12.30;99.90;;;;;;5054607;28;20299;-61
2024/01/24 02:43:36;;;;;;;1.40;1.40;;;12.20;99.90;;;;;;5051377;28;20189;-61
2024/01/24 02:46:05;;;;;;;1.30;1.30;;;12.20;99.90;;;;;;5054943;28;20224;-60
2024/01/24 02:48:33;;;;;;;1.27;1.27;;;12.30;99.90;;;;;;5053313;28;20229;-60
2024/01/24 02:51:02;;;;;;;1.43;1.33;;;12.30;99.90;;;;;;5070681;28;20231;-60
2024/01/24 02:53:30;;;;;;;1.50;1.37;;;12.30;99.90;;;;;;5054245;28;20220;-60
2024/01/24 02:55:58;;;;;;;2.37;1.43;;;12.30;99.90;;;;;;5055950;28;20185;-60
2024/01/24 02:58:26;;;;;;;2.67;1.40;;;12.20;99.90;;;;;;5055120;28;20212;-60
2024/01/24 03:00:56;;;;;;;2.23;1.70;;;12.10;99.90;;;;;;5047686;28;20225;-62
2024/01/24 03:03:24;;;;;;;5.70;1.77;;;12.10;99.90;;;;;;5044108;28;20224;-61
2024/01/24 03:05:53;;;;;;;6.03;1.90;;;12.10;99.90;;;;;;5053147;28;20231;-62
2024/01/24 03:08:21;;;;;;;8.37;1.83;;;12.10;99.90;;;;;;5050164;28;20204;-61
2024/01/24 03:10:49;;;;;;;10.67;2.20;;;12.10;99.90;;;;;;5045830;28;20220;-61
2024/01/24 03:13:18;;;;;;;7.60;2.23;;;12.20;99.90;;;;;;5051682;28;20595;-61
2024/01/24 03:15:46;;;;;;;7.20;2.07;;;12.20;99.90;;;;;;5054915;28;20263;-61
2024/01/24 03:18:16;;;;;;;9.20;2.63;;;12.30;99.90;;;;;;5042951;28;20243;-61
2024/01/24 03:20:45;;;;;;;11.73;2.20;;;12.30;99.90;;;;;;5053679;28;20220;-61
2024/01/24 03:23:16;;;;;;;13.47;2.30;;;12.20;99.90;;;;;;5050709;28;20204;-61
2024/01/24 03:25:44;;;;;;;9.37;2.27;;;12.20;99.90;;;;;;5051081;28;20197;-61
2024/01/24 03:28:13;;;;;;;9.23;2.57;;;12.20;99.90;;;;;;5053867;28;20247;-60
2024/01/24 03:30:41;;;;;;;18.27;2.80;;;12.10;99.90;;;;;;5052780;28;20750;-60
2024/01/24 03:33:09;;;;;;;10.37;2.40;;;12.20;99.90;;;;;;5041896;28;20686;-61
2024/01/24 03:35:39;;;;;;;7.53;2.43;;;12.20;99.90;;;;;;5044498;28;20228;-60
2024/01/24 03:38:07;;;;;;;11.47;3.10;;;12.20;99.90;;;;;;5048759;28;20550;-61
2024/01/24 03:40:36;;;;;;;5.90;2.27;;;12.20;99.90;;;;;;5046951;28;20241;-60
2024/01/24 03:43:05;;;;;;;11.53;2.33;;;12.20;99.90;;;;;;5052447;28;20231;-61
2024/01/24 03:45:33;;;;;;;13.00;3.27;;;12.30;99.90;;;;;;5050594;28;20605;-61
2024/01/24 03:48:01;;;;;;;12.03;3.43;;;12.30;99.90;;;;;;5047246;28;20256;-61
2024/01/24 03:50:30;;;;;;;8.37;2.47;;;12.30;99.90;;;;;;5050591;28;20228;-60
2024/01/24 03:53:01;;;;;;;12.03;2.97;;;12.30;99.90;;;;;;5053817;28;20204;-61
2024/01/24 03:55:29;;;;;;;15.57;2.80;;;12.40;99.90;;;;;;5045058;28;20217;-61
2024/01/24 03:57:58;;;;;;;14.87;2.70;;;12.40;99.90;;;;;;5053370;28;20221;-61
2024/01/24 04:00:27;;;;;;;15.43;3.10;;;12.40;99.90;;;;;;5045417;28;20227;-62
2024/01/24 04:02:55;;;;;;;13.60;3.13;;;12.40;99.90;;;;;;5052401;28;20251;-62
2024/01/24 04:05:23;;;;;;;15.07;3.37;;;12.40;99.90;;;;;;5049911;28;20196;-62
2024/01/24 04:07:52;;;;;;;9.53;2.97;;;12.30;99.90;;;;;;5054425;28;20327;-61
2024/01/24 04:10:21;;;;;;;18.93;3.47;;;12.30;99.90;;;;;;5051342;28;20282;-62
2024/01/24 04:16:13;;;;;;;18.23;3.40;;;12.20;99.90;;;;;;5041255;28;20217;-62
2024/01/24 04:18:41;;;;;;;12.20;3.30;;;12.20;99.90;;;;;;5052316;28;20220;-62
2024/01/24 04:21:10;;;;;;;21.00;4.27;;;12.20;99.90;;;;;;5048936;28;20216;-61
2024/01/24 04:23:38;;;;;;;18.50;3.43;;;12.10;99.90;;;;;;5049593;28;20586;-62
2024/01/24 04:26:09;;;;;;;17.13;3.27;;;12.10;99.90;;;;;;5067818;28;20211;-62
2024/01/24 04:28:37;;;;;;;24.67;4.73;;;12.10;99.90;;;;;;5046924;28;20239;-61
2024/01/24 04:31:06;;;;;;;21.00;3.90;;;12.10;99.90;;;;;;5051436;28;20236;-61
2024/01/24 04:33:34;;;;;;;31.43;4.67;;;12.10;99.90;;;;;;5048545;28;20216;-61
2024/01/24 04:36:03;;;;;;;17.27;4.03;;;12.10;99.90;;;;;;5046447;28;20580;-61
2024/01/24 04:38:31;;;;;;;34.47;4.57;;;12.00;99.90;;;;;;5049583;28;20220;-62
2024/01/24 04:41:00;;;;;;;28.83;4.80;;;12.00;99.90;;;;;;5048477;28;20220;-62
2024/01/24 04:43:30;;;;;;;22.87;4.50;;;11.90;99.90;;;;;;5052545;28;20224;-62
2024/01/24 04:45:58;;;;;;;36.30;5.73;;;11.80;99.90;;;;;;5045630;28;20229;-62
2024/01/24 04:48:27;;;;;;;29.60;5.33;;;11.80;99.90;;;;;;5047404;28;20220;-62
2024/01/24 04:50:55;;;;;;;39.60;6.07;;;11.80;99.90;;;;;;5046930;28;20227;-62
2024/01/24 04:53:43;;;;;;;31.37;6.37;;;11.80;99.90;;;;;;5046023;28;20693;-61
2024/01/24 04:56:51;;;;;;;27.60;4.87;;;11.80;99.90;;;;;;5040068;28;20212;-61
2024/01/24 04:59:22;;;;;;;39.87;6.07;;;11.70;99.90;;;;;;5048539;28;20193;-62
2024/01/24 05:01:50;;;;;;;33.90;5.90;;;11.70;99.90;;;;;;5050552;28;20224;-62
2024/01/24 05:04:18;;;;;;;25.53;4.90;;;11.70;99.90;;;;;;5051468;28;20213;-62
2024/01/24 05:06:49;;;;;;;32.23;4.90;;;11.80;99.90;;;;;;5044341;28;20595;-62
2024/01/24 05:09:18;;;;;;;39.67;5.50;;;11.80;99.90;;;;;;5047639;28;20595;-61
2024/01/24 05:11:46;;;;;;;35.50;5.77;;;11.80;99.90;;;;;;5047746;28;20308;-62
2024/01/24 05:14:15;;;;;;;31.47;5.80;;;11.80;99.90;;;;;;5049995;28;20193;-62
2024/01/24 05:16:44;;;;;;;31.67;5.70;;;11.80;99.90;;;;;;5047611;28;20519;-62
2024/01/24 05:19:12;;;;;;;28.50;5.93;;;11.80;99.90;;;;;;5049065;28;20212;-60
2024/01/24 05:21:42;;;;;;;41.47;6.30;;;11.80;99.90;;;;;;5041099;28;20212;-61
2024/01/24 05:24:11;;;;;;;32.90;5.87;;;11.80;99.90;;;;;;5046627;28;20213;-62
2024/01/24 05:26:39;;;;;;;50.10;6.67;;;11.80;99.90;;;;;;5050707;28;20229;-61
2024/01/24 05:29:07;;;;;;;31.30;5.93;;;11.80;99.90;;;;;;5046565;28;20203;-61
2024/01/24 05:31:35;;;;;;;31.07;6.07;;;11.80;99.90;;;;;;5046416;28;20205;-61
2024/01/24 05:34:05;;;;;;;52.70;7.63;;;11.80;99.90;;;;;;5046885;28;20219;-61
2024/01/24 05:36:34;;;;;;;40.07;6.17;;;11.70;99.90;;;;;;5051352;28;20217;-61
2024/01/24 05:39:02;;;;;;;30.03;6.13;;;11.80;99.90;;;;;;5045539;28;20235;-61
2024/01/24 05:41:30;;;;;;;37.73;5.67;;;11.80;99.90;;;;;;5044157;28;20587;-61
2024/01/24 05:43:59;;;;;;;35.07;7.07;;;11.80;99.90;;;;;;5047204;28;20201;-61
2024/01/24 05:46:27;;;;;;;34.50;6.40;;;11.80;99.90;;;;;;5044678;28;20307;-61
2024/01/24 05:48:56;;;;;;;37.77;6.03;;;11.80;99.90;;;;;;5048051;28;20217;-61
2024/01/24 05:51:26;;;;;;;40.77;6.30;;;11.70;99.90;;;;;;5045834;28;20731;-61
2024/01/24 05:53:54;;;;;;;42.77;6.97;;;11.70;99.90;;;;;;5045712;28;20255;-62
2024/01/24 05:56:22;;;;;;;38.53;6.50;;;11.70;99.90;;;;;;5053000;28;20189;-62
2024/01/24 05:58:51;;;;;;;34.67;6.13;;;11.60;99.90;;;;;;5051580;28;20192;-62
2024/01/24 06:01:19;;;;;;;38.17;6.80;;;11.60;99.90;;;;;;5051563;28;20221;-62
2024/01/24 06:03:47;;;;;;;38.80;6.13;;;11.60;99.90;;;;;;5051720;28;20684;-62
2024/01/24 06:06:17;;;;;;;42.63;6.60;;;11.60;99.90;;;;;;5051316;28;20258;-62
2024/01/24 06:08:47;;;;;;;45.33;7.30;;;11.60;99.90;;;;;;5054109;28;20422;-62
2024/01/24 06:11:15;;;;;;;53.10;7.90;;;11.50;99.90;;;;;;5045443;28;20559;-62
2024/01/24 06:13:43;;;;;;;48.83;7.77;;;11.50;99.90;;;;;;5051364;28;20197;-62
2024/01/24 06:16:12;;;;;;;41.13;6.70;;;11.50;99.90;;;;;;5052310;28;20308;-62
2024/01/24 06:18:40;;;;;;;45.53;7.93;;;11.50;99.90;;;;;;5045974;28;20587;-62
2024/01/24 06:21:09;;;;;;;41.33;7.60;;;11.50;99.90;;;;;;5049898;28;20216;-63
2024/01/24 06:23:37;;;;;;;49.87;7.13;;;11.50;99.90;;;;;;5043799;28;20681;-62
2024/01/24 06:26:07;;;;;;;42.67;7.20;;;11.50;99.90;;;;;;5033407;28;20628;-62
2024/01/24 06:28:36;;;;;;;55.93;7.33;;;11.50;99.90;;;;;;5049154;28;20319;-62
2024/01/24 06:31:04;;;;;;;44.60;7.60;;;11.50;99.90;;;;;;5049799;28;20224;-62
2024/01/24 06:33:33;;;;;;;48.77;7.87;;;11.40;99.90;;;;;;5049986;28;20220;-61
2024/01/24 06:36:01;;;;;;;41.50;7.73;;;11.40;99.90;;;;;;5047892;28;20228;-61
2024/01/24 06:38:29;;;;;;;49.83;7.63;;;11.50;99.90;;;;;;5049742;28;20224;-61
2024/01/24 06:40:58;;;;;;;40.90;7.03;;;11.50;99.90;;;;;;5052833;28;20223;-61
2024/01/24 06:43:29;;;;;;;48.57;7.97;;;11.40;99.90;;;;;;5050223;28;20224;-61
2024/01/24 06:45:57;;;;;;;36.77;6.70;;;11.40;99.90;;;;;;5065914;28;20243;-60
2024/01/24 06:48:25;;;;;;;43.57;7.07;;;11.40;99.90;;;;;;5049031;28;20236;-61
2024/01/24 06:50:54;;;;;;;48.53;7.30;;;11.40;99.90;;;;;;5053089;28;20232;-61
2024/01/24 06:53:22;;;;;;;44.90;8.00;;;11.30;99.90;;;;;;5052642;28;20274;-61
2024/01/24 06:55:51;;;;;;;53.67;8.53;;;11.30;99.90;;;;;;5050597;28;20189;-61
2024/01/24 06:58:19;;;;;;;43.33;7.73;;;11.30;99.90;;;;;;5050872;28;20221;-61
2024/01/24 07:00:49;;;;;;;45.67;7.50;;;11.20;99.90;;;;;;5053296;28;20213;-62
2024/01/24 07:03:17;;;;;;;36.70;7.50;;;11.20;99.90;;;;;;5046511;28;20224;-61
2024/01/24 07:05:51;;;;;;;40.57;7.77;;;11.20;99.90;;;;;;5048905;28;20231;-61
2024/01/24 07:08:19;;;;;;;45.93;7.47;;;11.20;99.90;;;;;;5048430;28;20543;-62
2024/01/24 07:10:47;;;;;;;46.33;8.00;;;11.10;99.90;;;;;;5049474;28;20270;-61
2024/01/24 07:13:16;;;;;;;44.57;7.50;;;11.10;99.90;;;;;;5046386;28;20216;-61
2024/01/24 07:15:44;;;;;;;51.83;7.97;;;11.00;99.90;;;;;;5051317;28;20732;-61
2024/01/24 07:18:13;;;;;;;50.33;7.27;;;10.90;99.90;;;;;;5045521;28;20213;-62
2024/01/24 07:20:43;;;;;;;38.97;7.70;;;10.90;99.90;;;;;;5051322;28;20316;-61
2024/01/24 07:23:14;;;;;;;51.43;8.97;;;10.90;99.90;;;;;;5045475;28;20648;-62
2024/01/24 07:25:42;;;;;;;37.53;6.77;;;10.80;99.90;;;;;;5049943;28;20515;-62
2024/01/24 07:28:11;;;;;;;56.63;8.10;;;10.80;99.90;;;;;;5046050;28;20235;-62
2024/01/24 07:30:39;;;;;;;45.80;7.63;;;10.80;99.90;;;;;;5050301;28;20622;-61
2024/01/24 07:33:07;;;;;;;52.97;8.27;;;10.70;99.90;;;;;;5047938;28;20213;-61
2024/01/24 07:35:37;;;;;;;48.33;7.23;;;10.70;99.90;;;;;;5046651;28;20221;-62
2024/01/24 07:38:06;;;;;;;47.07;7.40;;;10.70;99.90;;;;;;5046646;28;20203;-61
2024/01/24 07:40:34;;;;;;;50.90;9.30;;;10.70;99.90;;;;;;5049142;28;20192;-62
2024/01/24 07:43:02;;;;;;;48.47;7.73;;;10.70;99.90;;;;;;5041721;28;20228;-61
2024/01/24 07:45:30;;;;;;;50.00;7.57;;;10.70;99.90;;;;;;5052729;28;20213;-62
2024/01/24 07:47:59;;;;;;;54.27;8.30;;;10.60;99.90;;;;;;5045766;28;20228;-62
2024/01/24 07:50:28;;;;;;;51.60;8.43;;;10.60;99.90;;;;;;5049742;28;20262;-62
2024/01/24 07:52:57;;;;;;;44.87;7.33;;;10.60;99.90;;;;;;5048276;28;20239;-61
2024/01/24 07:55:26;;;;;;;45.90;7.80;;;10.60;99.90;;;;;;5044862;28;20266;-61
2024/01/24 07:58:13;;;;;;;40.07;6.97;;;10.60;99.90;;;;;;5046732;28;20220;-61
2024/01/24 08:00:43;;;;;;;55.33;7.93;;;10.60;99.90;;;;;;5045908;28;20318;-61
2024/01/24 08:03:13;;;;;;;51.90;8.37;;;10.60;99.90;;;;;;5045051;28;20312;-62
2024/01/24 08:05:43;;;;;;;49.40;8.87;;;10.60;99.90;;;;;;5039771;28;20304;-61
2024/01/24 08:08:13;;;;;;;54.40;8.10;;;10.60;99.90;;;;;;5047213;28;20201;-62
2024/01/24 08:10:42;;;;;;;49.67;7.40;;;10.60;99.90;;;;;;5043495;28;20196;-61
2024/01/24 08:13:10;;;;;;;52.97;8.40;;;10.70;99.90;;;;;;5047393;28;20282;-61
2024/01/24 08:15:39;;;;;;;51.37;7.73;;;10.70;99.90;;;;;;5043328;28;20305;-61
2024/01/24 08:18:07;;;;;;;52.93;8.60;;;10.60;99.90;;;;;;5035288;28;20608;-61
2024/01/24 08:20:37;;;;;;;51.87;8.73;;;10.60;99.90;;;;;;5023908;28;20222;-62
2024/01/24 08:23:06;;;;;;;53.57;7.73;;;10.70;99.90;;;;;;5022796;28;20277;-61
2024/01/24 08:25:35;;;;;;;54.70;7.93;;;10.70;99.90;;;;;;5032052;28;20203;-62
2024/01/24 08:28:04;;;;;;;42.63;8.10;;;10.80;99.90;;;;;;5035834;28;20680;-62
2024/01/24 08:30:32;;;;;;;57.37;8.60;;;10.80;99.90;;;;;;5027287;28;20257;-61
2024/01/24 08:33:02;;;;;;;49.20;8.23;;;10.90;99.90;;;;;;5027109;28;20233;-61
2024/01/24 08:35:33;;;;;;;52.63;8.13;;;10.90;99.90;;;;;;5027430;28;20304;-61
2024/01/24 08:38:01;;;;;;;52.57;8.77;;;10.90;99.90;;;;;;5024585;28;20230;-62
2024/01/24 08:40:29;;;;;;;50.60;7.87;;;10.90;99.90;;;;;;5032149;28;20213;-61
2024/01/24 08:42:59;;;;;;;48.53;7.30;;;10.80;99.90;;;;;;5042632;28;20224;-62
2024/01/24 08:45:27;;;;;;;51.73;8.53;;;10.90;99.90;;;;;;5039998;28;20231;-62
2024/01/24 08:47:56;;;;;;;50.73;8.03;;;10.90;99.90;;;;;;5045251;28;20633;-61
2024/01/24 08:50:24;;;;;;;47.77;8.13;;;11.00;99.90;;;;;;5047867;28;20205;-62
2024/01/24 08:52:52;;;;;;;46.87;8.00;;;11.00;99.90;;;;;;5045591;28;20204;-62
2024/01/24 08:55:21;;;;;;;46.13;7.20;;;11.00;99.90;;;;;;5044990;28;20619;-62
2024/01/24 08:57:49;;;;;;;39.70;7.70;;;11.00;99.90;;;;;;5047014;28;20776;-61
2024/01/24 09:00:20;;;;;;;53.00;8.50;;;11.00;99.90;;;;;;5044280;28;20224;-62
2024/01/24 09:02:48;;;;;;;47.53;7.17;;;11.10;99.90;;;;;;5040045;28;20246;-61
2024/01/24 09:05:20;;;;;;;51.10;7.83;;;11.10;99.90;;;;;;5046642;28;20184;-61
2024/01/24 09:07:49;;;;;;;44.07;7.50;;;11.10;99.90;;;;;;5044095;28;20222;-61
2024/01/24 09:10:18;;;;;;;48.73;7.43;;;11.10;99.90;;;;;;5043865;28;20690;-61
2024/01/24 09:12:46;;;;;;;49.77;7.77;;;11.10;99.90;;;;;;5043923;28;20247;-62
2024/01/24 09:15:15;;;;;;;43.60;7.60;;;11.10;99.90;;;;;;5040206;28;20312;-62
2024/01/24 09:17:45;;;;;;;58.20;7.70;;;11.20;99.90;;;;;;5039705;28;20314;-62
2024/01/24 09:20:14;;;;;;;44.83;7.97;;;11.20;99.90;;;;;;5042532;28;20246;-62
2024/01/24 09:22:43;;;;;;;47.90;8.30;;;11.30;99.90;;;;;;5048065;28;20224;-62
2024/01/24 09:25:11;;;;;;;49.57;8.20;;;11.30;99.90;;;;;;5046799;28;20221;-62
2024/01/24 09:27:41;;;;;;;47.30;7.80;;;11.40;98.80;;;;;;5045866;28;20315;-62
2024/01/24 09:30:11;;;;;;;57.10;9.17;;;11.40;99.70;;;;;;5046230;28;20225;-62
2024/01/24 09:32:39;;;;;;;53.23;8.10;;;11.50;99.90;;;;;;5045739;28;20260;-62
2024/01/24 09:35:09;;;;;;;48.97;8.43;;;11.50;96.90;;;;;;5046153;28;20184;-61
2024/01/24 09:37:40;;;;;;;49.13;7.77;;;11.50;96.30;;;;;;5045611;28;20197;-62
2024/01/24 09:40:11;;;;;;;39.83;7.30;;;11.60;96.00;;;;;;5046878;28;20233;-63
2024/01/24 09:42:43;;;;;;;55.97;8.50;;;11.60;93.70;;;;;;5043712;28;20278;-62
2024/01/24 09:45:12;;;;;;;44.03;7.93;;;11.60;96.20;;;;;;5043450;28;20256;-62
2024/01/24 09:47:42;;;;;;;50.33;8.00;;;11.70;97.40;;;;;;5044005;28;20228;-62
2024/01/24 09:50:13;;;;;;;54.73;8.90;;;11.70;97.40;;;;;;5045878;28;20284;-61
2024/01/24 09:52:45;;;;;;;47.10;7.93;;;11.80;97.40;;;;;;5050715;28;20220;-62
2024/01/24 09:55:19;;;;;;;56.67;9.20;;;11.90;98.10;;;;;;5044501;28;20216;-61
2024/01/24 09:57:51;;;;;;;51.43;8.67;;;11.90;93.70;;;;;;5048623;28;20295;-61
2024/01/24 10:00:20;;;;;;;48.00;7.53;;;11.90;94.70;;;;;;5044876;28;20225;-61
2024/01/24 10:02:49;;;;;;;54.60;8.63;;;12.00;95.50;;;;;;5042384;28;20228;-61
2024/01/24 10:05:21;;;;;;;53.23;8.20;;;12.10;93.30;;;;;;5040792;28;20189;-62
2024/01/24 10:07:50;;;;;;;48.23;8.03;;;12.10;92.30;;;;;;5050161;28;20213;-62
2024/01/24 10:10:18;;;;;;;45.70;7.47;;;12.20;95.00;;;;;;5043763;28;20217;-62
2024/01/24 10:12:47;;;;;;;53.73;8.37;;;12.30;86.30;;;;;;5043222;28;20278;-63
2024/01/24 10:15:15;;;;;;;51.63;8.00;;;12.40;82.80;;;;;;5042162;28;20228;-62
2024/01/24 10:17:44;;;;;;;47.90;8.20;;;12.40;87.10;;;;;;5039919;28;20599;-63
2024/01/24 10:20:13;;;;;;;49.53;8.20;;;12.40;88.60;;;;;;5033439;28;20197;-63
2024/01/24 10:22:44;;;;;;;56.33;9.10;;;12.40;86.80;;;;;;5056030;28;20627;-62
2024/01/24 10:25:13;;;;;;;54.77;9.37;;;12.40;86.00;;;;;;5041859;28;20708;-63
2024/01/24 10:27:42;;;;;;;43.50;8.33;;;12.30;81.90;;;;;;5046788;28;20331;-63
2024/01/24 10:30:12;;;;;;;42.43;7.63;;;12.40;82.10;;;;;;5047815;28;20690;-63
2024/01/24 10:32:44;;;;;;;48.43;8.07;;;12.40;67.10;;;;;;5045669;28;20286;-63
2024/01/24 10:35:12;;;;;;;45.87;8.20;;;12.50;75.60;;;;;;5042575;28;20220;-62
2024/01/24 10:37:45;;;;;;;44.37;7.60;;;12.50;72.50;;;;;;5050815;28;20647;-62
2024/01/24 10:40:16;;;;;;;45.50;7.13;;;12.60;66.20;;;;;;5050289;28;20221;-62
2024/01/24 10:42:49;;;;;;;52.63;8.27;;;12.70;61.10;;;;;;5049282;28;20220;-62
2024/01/24 10:45:18;;;;;;;54.97;7.40;;;12.70;55.40;;;;;;5047176;28;20711;-62
2024/01/24 10:47:48;;;;;;;42.63;7.57;;;12.70;55.50;;;;;;5045109;28;20225;-63
2024/01/24 10:50:20;;;;;;;45.37;7.57;;;12.70;44.10;;;;;;5047421;28;20219;-62
2024/01/24 10:52:51;;;;;;;43.47;8.07;;;12.70;42.30;;;;;;5042878;28;20208;-62
2024/01/24 10:55:22;;;;;;;45.20;7.37;;;12.70;45.70;;;;;;5051965;28;20227;-62
2024/01/24 10:57:51;;;;;;;37.00;6.97;;;12.80;45.60;;;;;;5053885;28;20232;-63
2024/01/24 11:00:22;;;;;;;45.97;7.77;;;12.90;36.80;;;;;;5045089;28;20270;-63
2024/01/24 11:02:51;;;;;;;46.23;7.27;;;12.90;30.00;;;;;;5042804;28;20299;-63
2024/01/24 11:05:26;;;;;;;38.33;6.80;;;12.80;33.30;;;;;;5050013;28;20233;-63
2024/01/24 11:08:02;;;;;;;30.73;6.20;;;12.80;26.00;;;;;;5051406;28;20710;-62
2024/01/24 11:10:35;;;;;;;31.17;6.67;;;12.70;27.00;;;;;;5042298;28;20223;-63
2024/01/24 11:13:05;;;;;;;41.63;7.80;;;12.70;22.60;;;;;;5050661;28;20574;-63
2024/01/24 11:15:34;;;;;;;43.27;7.50;;;12.70;25.70;;;;;;5045692;28;20576;-62
2024/01/24 11:18:31;;;;;;;36.87;7.10;;;12.70;1.00;;;;;;5049812;28;20266;-63
2024/01/24 11:21:01;;;;;;;31.97;6.30;;;12.70;1.00;;;;;;5050889;28;20217;-62
2024/01/24 11:23:42;;;;;;;37.47;6.80;;;12.80;1.00;;;;;;5050646;28;20221;-63
2024/01/24 11:26:11;;;;;;;42.47;7.93;;;12.90;99.90;;;;;;5052804;28;20225;-62
2024/01/24 11:28:40;;;;;;;48.50;7.80;;;12.80;99.90;;;;;;5050253;28;20254;-62
2024/01/24 11:31:08;;;;;;;38.40;7.43;;;12.90;99.90;;;;;;5048548;28;20247;-62
2024/01/24 11:33:37;;;;;;;38.90;6.53;;;13.00;99.90;;;;;;5044955;28;20807;-63
2024/01/24 11:36:13;;;;;;;34.77;6.57;;;13.00;99.90;;;;;;5048978;28;20628;-63
2024/01/24 11:38:44;;;;;;;48.57;6.97;;;12.90;99.90;;;;;;5048718;28;20220;-62
2024/01/24 11:41:24;;;;;;;40.93;7.37;;;12.90;99.90;;;;;;5052263;28;20201;-62
2024/01/24 11:43:53;;;;;;;41.70;7.80;;;12.90;99.90;;;;;;5049448;28;20221;-62
2024/01/24 11:46:22;;;;;;;36.50;6.17;;;12.80;99.90;;;;;;5043111;28;20271;-63
2024/01/24 11:49:09;;;;;;;35.27;6.73;;;12.90;99.90;;;;;;5050533;28;20213;-62
2024/01/24 11:52:15;;;;;;;42.57;6.50;;;13.00;99.90;;;;;;5044040;28;20691;-62
2024/01/24 11:54:53;;;;;;;33.03;6.23;;;13.10;99.90;;;;;;5047904;28;20225;-63
2024/01/24 11:57:21;;;;;;;44.80;7.50;;;13.10;99.90;;;;;;5048202;28;20282;-62
2024/01/24 11:59:50;;;;;;;36.83;6.53;;;13.10;99.90;;;;;;5050151;28;20243;-63
2024/01/24 12:02:18;;;;;;;38.10;7.70;;;13.10;1.00;;;;;;5051461;28;20197;-62
2024/01/24 12:04:50;;;;;;;33.37;6.47;;;13.10;1.00;;;;;;5042154;28;20193;-63
2024/01/24 12:07:18;;;;;;;39.03;6.57;;;13.00;1.00;;;;;;5045971;28;20213;-63
2024/01/24 12:09:48;;;;;;;39.90;6.47;;;13.00;1.00;;;;;;5047487;28;21034;-62
2024/01/24 12:12:19;;;;;;;36.40;6.13;;;13.00;1.00;;;;;;5045417;28;20220;-63
2024/01/24 12:14:48;;;;;;;38.20;6.47;;;13.00;1.00;;;;;;5048926;28;20632;-63
2024/01/24 12:17:17;;;;;;;37.77;6.40;;;13.10;1.00;;;;;;5047952;28;20197;-63
2024/01/24 12:19:46;;;;;;;36.57;6.73;;;13.10;1.00;;;;;;5040950;28;20208;-62
2024/01/24 12:22:16;;;;;;;34.33;5.70;;;13.10;1.00;;;;;;5047551;28;20213;-62
2024/01/24 12:24:44;;;;;;;33.00;6.67;;;13.00;99.90;;;;;;5049121;28;20217;-63
2024/01/24 12:27:12;;;;;;;31.17;5.80;;;13.00;99.90;;;;;;5050171;28;20745;-62
2024/01/24 12:29:42;;;;;;;36.97;6.63;;;13.00;99.90;;;;;;5045988;28;20243;-62
2024/01/24 12:32:33;;;;;;;31.57;5.77;;;13.00;99.90;;;;;;5050338;28;20612;-62
2024/01/24 12:35:01;;;;;;;35.27;6.67;;;13.10;99.90;;;;;;5047009;28;20209;-63
2024/01/24 12:37:30;;;;;;;28.83;6.20;;;13.20;99.90;;;;;;5052234;28;20710;-63
2024/01/24 12:40:04;;;;;;;30.33;6.10;;;13.20;99.90;;;;;;5044401;28;20218;-62
2024/01/24 12:42:32;;;;;;;32.23;6.47;;;13.30;99.90;;;;;;5044900;28;20867;-63
2024/01/24 12:45:03;;;;;;;38.27;6.13;;;13.50;99.90;;;;;;5048953;28;20245;-63
2024/01/24 12:47:34;;;;;;;31.73;5.50;;;13.60;99.90;;;;;;5044845;28;20283;-63
2024/01/24 12:50:03;;;;;;;36.00;6.33;;;13.50;99.90;;;;;;5047997;28;20225;-62
2024/01/24 12:52:33;;;;;;;26.17;5.23;;;13.40;99.90;;;;;;5047637;28;20216;-62
2024/01/24 12:55:01;;;;;;;37.90;6.00;;;13.40;99.90;;;;;;5039023;28;20221;-62
2024/01/24 12:57:30;;;;;;;34.33;6.47;;;13.30;99.90;;;;;;5048366;28;20292;-62